Time;durP1;ratioP1;P1;durP2;ratioP2;P2;SDS_P1;SDS_P2;PMS_P1;PMS_P2;Temp;Humidity;BMP_temperature;BMP_pressure;BME280_temperature;BME280_humidity;BME280_pressure;Samples;Min_cycle;Max_cycle;Signal;HPM_P1;HPM_P2
2022/01/12 00:01:59;;;;;;;6.97;5.97;;;5.60;80.30;;;;;;5094603;28;20203;-73
2022/01/12 00:04:24;;;;;;;8.63;6.43;;;5.60;82.70;;;;;;5092559;28;20194;-73
2022/01/12 00:06:51;;;;;;;6.97;5.80;;;5.60;82.20;;;;;;5102674;28;20267;-73
2022/01/12 00:09:17;;;;;;;8.20;6.93;;;5.60;81.30;;;;;;5079039;28;20524;-73
2022/01/12 00:11:44;;;;;;;7.20;5.90;;;5.60;80.10;;;;;;5101761;28;20880;-73
2022/01/12 00:14:10;;;;;;;6.13;5.53;;;5.50;78.60;;;;;;5094408;28;20251;-73
2022/01/12 00:16:39;;;;;;;7.37;6.53;;;5.50;79.30;;;;;;5081425;28;20190;-74
2022/01/12 00:19:06;;;;;;;6.67;5.00;;;5.40;78.40;;;;;;5074681;28;20181;-73
2022/01/12 00:21:34;;;;;;;6.83;6.07;;;5.50;78.70;;;;;;5070409;28;20181;-73
2022/01/12 00:24:01;;;;;;;7.03;6.00;;;5.50;78.50;;;;;;5064511;28;20351;-73
2022/01/12 00:34:34;;;;;;;5.90;5.30;;;5.50;81.20;;;;;;5088564;28;20226;-73
2022/01/12 00:36:59;;;;;;;7.13;6.23;;;5.50;80.90;;;;;;5088961;28;20554;-73
2022/01/12 00:39:25;;;;;;;6.77;5.73;;;5.50;81.30;;;;;;5087908;28;20663;-73
2022/01/12 00:41:52;;;;;;;6.67;5.70;;;5.50;81.00;;;;;;5091840;28;20184;-73
2022/01/12 00:44:31;;;;;;;7.40;6.10;;;5.50;80.60;;;;;;5090034;28;20612;-73
2022/01/12 00:46:57;;;;;;;7.10;5.70;;;5.40;80.50;;;;;;5081677;28;20204;-74
2022/01/12 00:49:23;;;;;;;6.00;5.00;;;5.40;79.10;;;;;;5091819;28;20231;-74
2022/01/12 00:51:54;;;;;;;6.20;4.97;;;5.40;77.50;;;;;;5092204;28;20241;-73
2022/01/12 00:54:21;;;;;;;6.43;5.10;;;5.40;77.20;;;;;;5089188;28;20520;-74
2022/01/12 00:56:46;;;;;;;6.10;5.33;;;5.30;75.70;;;;;;5087240;28;20176;-73
2022/01/12 00:59:13;;;;;;;5.73;4.73;;;5.30;75.70;;;;;;5077903;28;20215;-74
2022/01/12 01:01:39;;;;;;;8.83;6.43;;;5.20;75.50;;;;;;5090619;28;20189;-74
2022/01/12 01:04:07;;;;;;;9.17;6.77;;;5.20;76.00;;;;;;5088815;28;20188;-73
2022/01/12 01:06:36;;;;;;;8.00;6.40;;;5.20;75.90;;;;;;5089337;28;20180;-74
2022/01/12 01:09:03;;;;;;;6.10;4.97;;;5.30;76.00;;;;;;5100548;28;20188;-73
2022/01/12 01:11:33;;;;;;;6.17;5.13;;;5.30;76.40;;;;;;5071065;28;20675;-74
2022/01/12 01:14:10;;;;;;;6.03;4.90;;;5.20;76.90;;;;;;5088633;28;20272;-74
2022/01/12 01:27:28;;;;;;;6.37;5.40;;;5.20;78.40;;;;;;5069512;28;20204;-73
2022/01/12 01:29:55;;;;;;;6.47;5.60;;;5.20;78.90;;;;;;5082928;28;20178;-74
2022/01/12 01:32:23;;;;;;;6.80;5.90;;;5.20;79.80;;;;;;5088508;28;20196;-73
2022/01/12 01:34:49;;;;;;;7.20;6.10;;;5.20;80.40;;;;;;5085505;28;20188;-73
2022/01/12 01:37:18;;;;;;;6.10;5.00;;;5.20;81.30;;;;;;5088602;28;20245;-73
2022/01/12 01:39:46;;;;;;;10.73;5.93;;;5.20;83.60;;;;;;5086071;28;20205;-74
2022/01/12 01:42:30;;;;;;;7.67;5.17;;;5.10;83.60;;;;;;5089803;28;20227;-74
2022/01/12 01:55:40;;;;;;;5.60;4.90;;;5.00;87.50;;;;;;5092945;28;20180;-74
2022/01/12 01:58:06;;;;;;;6.53;5.30;;;5.00;88.20;;;;;;5091749;28;20290;-75
2022/01/12 02:00:35;;;;;;;5.83;4.63;;;4.90;90.30;;;;;;5066581;28;20216;-74
2022/01/12 02:03:05;;;;;;;6.20;5.13;;;4.80;90.50;;;;;;5071302;28;20240;-74
2022/01/12 02:05:44;;;;;;;5.83;5.03;;;4.70;91.30;;;;;;5068930;28;20176;-74
2022/01/12 02:08:11;;;;;;;5.73;4.93;;;4.60;93.30;;;;;;5092986;28;20176;-74
2022/01/12 02:10:55;;;;;;;5.97;5.00;;;4.60;93.50;;;;;;5084878;28;20694;-74
2022/01/12 02:13:22;;;;;;;6.60;5.23;;;4.50;93.10;;;;;;5072826;28;20361;-74
2022/01/12 02:15:48;;;;;;;5.57;4.87;;;4.40;93.90;;;;;;5088223;28;20185;-75
2022/01/12 02:40:18;;;;;;;7.77;5.07;;;3.80;99.00;;;;;;5087952;28;20204;-73
2022/01/12 02:42:48;;;;;;;6.17;5.10;;;3.70;98.80;;;;;;5089997;28;20196;-73
2022/01/12 02:50:55;;;;;;;7.37;5.53;;;3.60;99.90;;;;;;5091915;28;20188;-73
2022/01/12 02:56:08;;;;;;;7.50;5.40;;;3.50;99.90;;;;;;5081887;28;20227;-73
2022/01/12 02:58:36;;;;;;;6.50;5.10;;;3.50;99.90;;;;;;5079500;28;20188;-73
2022/01/12 03:01:32;;;;;;;8.70;6.07;;;3.40;99.90;;;;;;5085583;28;20291;-74
2022/01/12 03:03:58;;;;;;;7.37;5.63;;;3.40;99.90;;;;;;5070435;28;20570;-74
2022/01/12 03:06:28;;;;;;;9.63;6.73;;;3.30;99.90;;;;;;5087433;28;20176;-74
2022/01/12 03:08:54;;;;;;;8.93;6.37;;;3.30;99.90;;;;;;5072939;28;20276;-71
2022/01/12 03:11:23;;;;;;;6.90;5.50;;;3.20;99.90;;;;;;5086454;28;20187;-71
2022/01/12 03:13:52;;;;;;;7.33;6.07;;;3.20;99.90;;;;;;5063823;28;20315;-72
2022/01/12 03:16:20;;;;;;;7.10;5.63;;;3.20;99.90;;;;;;5036899;28;20644;-72
2022/01/12 03:18:48;;;;;;;6.13;5.27;;;3.20;99.90;;;;;;5090887;28;20287;-72
2022/01/12 03:21:17;;;;;;;6.60;5.30;;;3.20;99.90;;;;;;5087272;28;20248;-72
2022/01/12 03:23:43;;;;;;;7.57;5.70;;;3.10;99.90;;;;;;5084109;28;20243;-72
2022/01/12 03:26:10;;;;;;;7.57;5.40;;;3.10;99.90;;;;;;5079108;28;20192;-72
2022/01/12 03:28:38;;;;;;;6.97;5.67;;;3.10;99.90;;;;;;5097552;28;20181;-73
2022/01/12 03:31:10;;;;;;;7.47;5.63;;;3.10;99.90;;;;;;5090118;28;20209;-72
2022/01/12 03:38:48;;;;;;;8.57;5.60;;;2.90;99.90;;;;;;5091680;28;20239;-72
2022/01/12 03:41:15;;;;;;;7.57;6.00;;;2.90;99.90;;;;;;5093275;28;20199;-74
2022/01/12 03:43:40;;;;;;;7.63;6.23;;;2.80;99.90;;;;;;5079490;28;20196;-74
2022/01/12 03:46:06;;;;;;;7.93;6.10;;;2.70;99.90;;;;;;5091494;28;20208;-74
2022/01/12 03:48:32;;;;;;;7.67;6.03;;;2.70;99.90;;;;;;5075413;28;20183;-74
2022/01/12 03:50:58;;;;;;;7.60;5.97;;;2.80;99.90;;;;;;5074135;28;20184;-74
2022/01/12 03:53:24;;;;;;;9.63;6.13;;;2.80;99.90;;;;;;5091270;28;20204;-74
2022/01/12 03:55:50;;;;;;;8.20;6.13;;;2.90;99.90;;;;;;5089500;28;20180;-74
2022/01/12 03:58:16;;;;;;;7.63;6.03;;;2.90;99.90;;;;;;5090627;28;20199;-72
2022/01/12 04:00:42;;;;;;;8.73;6.00;;;3.00;99.90;;;;;;5083665;28;20209;-72
2022/01/12 04:03:09;;;;;;;7.40;6.00;;;3.00;99.90;;;;;;5073556;28;20223;-72
2022/01/12 04:10:49;;;;;;;7.13;5.83;;;3.00;99.90;;;;;;5087584;28;20188;-73
2022/01/12 04:13:16;;;;;;;7.90;6.07;;;3.10;99.90;;;;;;5063301;28;20220;-72
2022/01/12 04:15:44;;;;;;;8.43;6.67;;;3.10;99.90;;;;;;5091068;28;20184;-73
2022/01/12 04:18:10;;;;;;;7.83;6.20;;;3.10;99.90;;;;;;5093258;28;20180;-73
2022/01/12 04:20:44;;;;;;;9.00;6.80;;;3.10;99.90;;;;;;5073377;28;20695;-71
2022/01/12 04:23:19;;;;;;;8.10;6.57;;;3.10;99.90;;;;;;5089505;28;20200;-73
2022/01/12 04:25:53;;;;;;;9.20;6.17;;;3.10;99.90;;;;;;5069883;28;20172;-73
2022/01/12 04:28:21;;;;;;;8.30;5.87;;;3.20;99.90;;;;;;5072674;28;20283;-73
2022/01/12 04:30:49;;;;;;;7.37;5.53;;;3.20;99.90;;;;;;5087296;28;20173;-73
2022/01/12 04:33:17;;;;;;;7.20;6.03;;;3.20;99.90;;;;;;5088779;28;20200;-74
2022/01/12 04:35:53;;;;;;;8.30;5.90;;;3.20;99.90;;;;;;5102423;28;20223;-73
2022/01/12 04:38:21;;;;;;;6.83;6.00;;;3.20;99.90;;;;;;5088777;28;20232;-73
2022/01/12 04:40:48;;;;;;;9.83;6.60;;;3.20;99.90;;;;;;5089197;28;20286;-72
2022/01/12 04:43:16;;;;;;;11.73;7.60;;;3.20;99.90;;;;;;5091800;28;20337;-72
2022/01/12 04:50:44;;;;;;;11.17;7.93;;;3.10;99.90;;;;;;5070394;28;20185;-73
2022/01/12 04:53:11;;;;;;;11.20;7.60;;;3.00;99.90;;;;;;5085841;28;20200;-73
2022/01/12 04:55:38;;;;;;;10.97;7.47;;;2.90;99.90;;;;;;5066408;28;20678;-72
2022/01/12 04:58:05;;;;;;;9.23;6.90;;;2.90;99.90;;;;;;5072998;28;20301;-73
2022/01/12 05:00:33;;;;;;;9.80;6.80;;;2.90;99.90;;;;;;5089614;28;20726;-73
2022/01/12 05:13:49;;;;;;;8.87;6.80;;;2.80;99.90;;;;;;5086299;28;20619;-72
2022/01/12 05:16:16;;;;;;;10.03;7.03;;;2.70;99.90;;;;;;5087924;28;20525;-73
2022/01/12 05:18:43;;;;;;;9.67;6.67;;;2.70;99.90;;;;;;5088727;28;20611;-73
2022/01/12 05:21:10;;;;;;;10.23;6.77;;;2.70;99.90;;;;;;5080702;28;20200;-72
2022/01/12 05:23:36;;;;;;;8.87;6.43;;;2.70;99.90;;;;;;5071782;28;20228;-72
2022/01/12 05:26:04;;;;;;;9.13;6.50;;;2.70;99.90;;;;;;5088655;28;20666;-72
2022/01/12 05:28:33;;;;;;;8.73;6.47;;;2.80;99.90;;;;;;5089978;28;20173;-72
2022/01/12 05:31:00;;;;;;;11.17;7.47;;;2.80;99.90;;;;;;5095204;28;20271;-72
2022/01/12 05:33:27;;;;;;;9.23;6.60;;;2.70;99.90;;;;;;5089578;28;20642;-72
2022/01/12 05:35:56;;;;;;;8.47;6.73;;;2.60;99.90;;;;;;5086591;28;20199;-72
2022/01/12 05:38:23;;;;;;;9.03;7.50;;;2.60;99.90;;;;;;5072757;28;20188;-72
2022/01/12 05:40:55;;;;;;;9.40;6.50;;;2.60;99.90;;;;;;5053367;28;20634;-72
2022/01/12 05:43:26;;;;;;;9.80;7.23;;;2.60;99.90;;;;;;5101538;28;20205;-72
2022/01/12 05:45:54;;;;;;;9.87;7.07;;;2.50;99.90;;;;;;5100595;28;20184;-72
2022/01/12 05:50:48;;;;;;;8.33;6.50;;;2.50;99.90;;;;;;5083345;28;20186;-72
2022/01/12 05:53:18;;;;;;;7.93;6.53;;;2.50;99.90;;;;;;5061739;28;20553;-73
2022/01/12 05:55:48;;;;;;;7.67;6.17;;;2.40;99.90;;;;;;5083644;28;20189;-73
2022/01/12 05:58:14;;;;;;;9.03;6.63;;;2.30;99.90;;;;;;5070422;28;20191;-73
2022/01/12 06:00:40;;;;;;;6.90;5.70;;;2.40;99.90;;;;;;5084001;28;20212;-73
2022/01/12 06:03:06;;;;;;;9.70;5.83;;;2.30;99.90;;;;;;5078234;28;20204;-73
2022/01/12 06:05:33;;;;;;;8.60;6.30;;;2.40;99.90;;;;;;5065751;28;20944;-73
2022/01/12 06:07:59;;;;;;;8.40;6.30;;;2.40;99.90;;;;;;5069053;28;20180;-73
2022/01/12 06:10:25;;;;;;;8.70;6.53;;;2.30;99.90;;;;;;5083394;28;20197;-73
2022/01/12 06:12:52;;;;;;;8.73;6.97;;;2.40;99.90;;;;;;5067067;28;20638;-72
2022/01/12 06:15:19;;;;;;;11.70;7.40;;;2.40;99.90;;;;;;5085837;28;20188;-72
2022/01/12 06:17:45;;;;;;;9.90;7.20;;;2.40;99.90;;;;;;5083798;28;20262;-72
2022/01/12 06:20:11;;;;;;;8.37;6.60;;;2.40;99.90;;;;;;5086910;28;20215;-72
2022/01/12 06:22:59;;;;;;;10.20;7.60;;;2.30;99.90;;;;;;5058260;28;20542;-73
2022/01/12 06:25:25;;;;;;;9.50;7.07;;;2.30;99.90;;;;;;5091897;28;20184;-73
2022/01/12 06:28:09;;;;;;;9.20;6.67;;;2.30;99.90;;;;;;5090856;28;20188;-73
2022/01/12 06:33:20;;;;;;;10.73;7.17;;;2.40;99.90;;;;;;5090198;28;20204;-73
2022/01/12 06:35:46;;;;;;;10.80;7.30;;;2.40;99.90;;;;;;5100468;28;20178;-79
2022/01/12 06:38:12;;;;;;;9.33;6.80;;;2.40;99.90;;;;;;5091093;28;20886;-74
2022/01/12 06:40:38;;;;;;;10.77;7.43;;;2.40;99.90;;;;;;5087726;28;20207;-74
2022/01/12 06:43:05;;;;;;;10.50;7.67;;;2.50;99.90;;;;;;5090826;28;20200;-76
2022/01/12 06:45:32;;;;;;;11.47;8.10;;;2.50;99.90;;;;;;5072166;28;20198;-76
2022/01/12 06:47:57;;;;;;;11.77;7.80;;;2.50;99.90;;;;;;5088932;28;20643;-74
2022/01/12 06:50:23;;;;;;;10.50;7.73;;;2.50;99.90;;;;;;5092327;28;20179;-73
2022/01/12 06:52:49;;;;;;;8.90;7.00;;;2.50;99.90;;;;;;5086468;28;20234;-73
2022/01/12 06:55:15;;;;;;;9.93;7.33;;;2.50;99.90;;;;;;5085968;28;20181;-75
2022/01/12 06:57:40;;;;;;;12.10;7.40;;;2.50;99.90;;;;;;5070701;28;20648;-74
2022/01/12 07:00:08;;;;;;;10.67;7.37;;;2.40;99.90;;;;;;5080346;28;20683;-72
2022/01/12 07:02:35;;;;;;;10.00;7.53;;;2.40;99.90;;;;;;5059736;28;20265;-73
2022/01/12 07:05:01;;;;;;;14.63;8.50;;;2.30;99.90;;;;;;5086253;28;20180;-69
2022/01/12 07:07:27;;;;;;;11.30;8.53;;;2.40;99.90;;;;;;5088682;28;20258;-70
2022/01/12 07:09:57;;;;;;;10.47;8.00;;;2.40;99.90;;;;;;5085242;28;20189;-72
2022/01/12 07:12:25;;;;;;;11.10;8.10;;;2.30;99.90;;;;;;5085812;28;20222;-71
2022/01/12 07:14:52;;;;;;;13.10;8.83;;;2.30;99.90;;;;;;5088601;28;20196;-72
2022/01/12 07:17:18;;;;;;;10.97;8.17;;;2.30;99.90;;;;;;5087635;28;20215;-72
2022/01/12 07:19:44;;;;;;;10.57;7.80;;;2.30;99.90;;;;;;5088600;28;20197;-71
2022/01/12 07:22:10;;;;;;;12.07;7.53;;;2.40;99.90;;;;;;5078796;28;20204;-71
2022/01/12 07:24:36;;;;;;;10.10;7.23;;;2.40;99.90;;;;;;5071911;28;20619;-71
2022/01/12 07:27:01;;;;;;;10.13;7.87;;;2.40;99.90;;;;;;5086134;28;20190;-71
2022/01/12 07:29:27;;;;;;;10.57;7.57;;;2.40;99.90;;;;;;5086852;28;20231;-71
2022/01/12 07:31:53;;;;;;;10.47;7.80;;;2.40;99.90;;;;;;5084015;28;20210;-71
2022/01/12 07:34:19;;;;;;;12.13;8.13;;;2.40;99.90;;;;;;5088295;28;20208;-71
2022/01/12 07:36:44;;;;;;;10.13;7.73;;;2.40;99.90;;;;;;5088861;28;20187;-71
2022/01/12 07:39:10;;;;;;;9.87;7.17;;;2.50;99.90;;;;;;5089076;28;20199;-71
2022/01/12 07:41:37;;;;;;;11.07;8.03;;;2.50;99.90;;;;;;5082373;28;20170;-71
2022/01/12 07:44:03;;;;;;;10.47;8.13;;;2.50;99.90;;;;;;5084718;28;20201;-71
2022/01/12 07:46:28;;;;;;;11.77;8.10;;;2.60;99.90;;;;;;5088931;28;20234;-69
2022/01/12 07:48:54;;;;;;;10.63;7.80;;;2.50;99.90;;;;;;5085332;28;20736;-71
2022/01/12 07:51:20;;;;;;;10.67;7.80;;;2.50;99.90;;;;;;5086132;28;20215;-71
2022/01/12 07:53:45;;;;;;;12.27;8.43;;;2.50;99.90;;;;;;5087453;28;20204;-70
2022/01/12 07:56:12;;;;;;;11.17;7.90;;;2.50;99.90;;;;;;5086076;28;20199;-70
2022/01/12 07:58:38;;;;;;;9.57;7.50;;;2.60;99.90;;;;;;5087941;28;20208;-71
2022/01/12 08:01:03;;;;;;;10.27;7.87;;;2.60;99.90;;;;;;5086744;28;20243;-70
2022/01/12 08:03:29;;;;;;;10.83;7.30;;;2.60;99.90;;;;;;5088980;28;20425;-71
2022/01/12 08:05:56;;;;;;;11.80;8.80;;;2.60;99.90;;;;;;5088128;28;20195;-71
2022/01/12 08:08:22;;;;;;;12.67;8.23;;;2.60;99.90;;;;;;5088204;28;20203;-70
2022/01/12 08:10:48;;;;;;;13.50;8.77;;;2.60;99.90;;;;;;5080577;28;20189;-70
2022/01/12 08:13:14;;;;;;;12.07;8.30;;;2.50;99.90;;;;;;5068848;28;20235;-71
2022/01/12 08:15:40;;;;;;;10.37;7.60;;;2.50;99.90;;;;;;5067334;28;20296;-71
2022/01/12 08:18:06;;;;;;;11.17;8.63;;;2.60;99.90;;;;;;5067470;28;21109;-71
2022/01/12 08:20:32;;;;;;;12.03;9.00;;;2.50;99.90;;;;;;5065741;28;20209;-71
2022/01/12 08:22:58;;;;;;;13.53;8.53;;;2.50;99.90;;;;;;5067269;28;20274;-71
2022/01/12 08:25:25;;;;;;;12.17;8.53;;;2.60;99.90;;;;;;5071626;28;20184;-71
2022/01/12 08:27:51;;;;;;;11.27;8.33;;;2.70;99.90;;;;;;5070308;28;20230;-71
2022/01/12 08:30:19;;;;;;;11.03;8.13;;;2.70;99.90;;;;;;5071094;28;20286;-71
2022/01/12 08:32:49;;;;;;;11.33;8.73;;;2.80;99.90;;;;;;5072552;28;20228;-71
2022/01/12 08:35:15;;;;;;;13.00;9.07;;;2.90;99.90;;;;;;5072165;28;20195;-71
2022/01/12 08:37:42;;;;;;;14.17;10.47;;;3.00;99.90;;;;;;5069266;28;20260;-71
2022/01/12 08:40:08;;;;;;;23.93;14.73;;;3.10;99.90;;;;;;5070890;28;20318;-71
2022/01/12 08:42:34;;;;;;;30.70;17.33;;;3.20;99.90;;;;;;5070706;28;20212;-71
2022/01/12 08:45:02;;;;;;;22.03;14.10;;;3.30;99.90;;;;;;5070929;28;20203;-71
2022/01/12 08:47:29;;;;;;;17.77;11.17;;;3.30;99.90;;;;;;5071153;28;20548;-71
2022/01/12 08:49:55;;;;;;;15.00;10.00;;;3.40;99.90;;;;;;5068231;28;20271;-71
2022/01/12 08:52:24;;;;;;;13.40;10.10;;;3.40;99.90;;;;;;5071334;28;20262;-72
2022/01/12 08:54:51;;;;;;;10.73;8.77;;;3.50;99.90;;;;;;5073270;28;20180;-71
2022/01/12 08:57:16;;;;;;;14.33;10.37;;;3.50;99.90;;;;;;5067795;28;20177;-71
2022/01/12 08:59:43;;;;;;;12.60;9.43;;;3.50;99.90;;;;;;5071440;28;22840;-71
2022/01/12 09:02:09;;;;;;;12.57;9.60;;;3.50;99.90;;;;;;5081535;28;20671;-72
2022/01/12 09:04:35;;;;;;;12.60;9.67;;;3.50;99.90;;;;;;5070592;28;20173;-71
2022/01/12 09:07:01;;;;;;;13.73;9.20;;;3.50;99.90;;;;;;5066772;28;20180;-71
2022/01/12 09:09:27;;;;;;;13.77;8.97;;;3.50;99.90;;;;;;5069939;28;20189;-71
2022/01/12 09:11:52;;;;;;;14.57;9.73;;;3.50;99.90;;;;;;5070143;28;20194;-72
2022/01/12 09:14:18;;;;;;;11.03;8.60;;;3.50;99.90;;;;;;5072379;28;21851;-71
2022/01/12 09:16:57;;;;;;;13.20;8.67;;;3.50;99.90;;;;;;5069509;28;20181;-72
2022/01/12 09:19:24;;;;;;;12.00;9.30;;;3.50;99.90;;;;;;5070425;28;20203;-71
2022/01/12 09:21:51;;;;;;;12.43;9.20;;;3.60;99.90;;;;;;5071310;28;20275;-71
2022/01/12 09:24:17;;;;;;;11.70;8.90;;;3.60;99.90;;;;;;5067668;28;20192;-71
2022/01/12 09:26:43;;;;;;;12.13;8.93;;;3.70;99.90;;;;;;5069912;28;20179;-72
2022/01/12 09:29:09;;;;;;;10.63;8.50;;;3.70;99.90;;;;;;5070454;28;20575;-71
2022/01/12 09:31:35;;;;;;;15.27;10.40;;;3.70;99.90;;;;;;5069522;28;20222;-72
2022/01/12 09:34:02;;;;;;;14.70;10.13;;;3.70;99.90;;;;;;5068106;28;20215;-72
2022/01/12 09:36:28;;;;;;;13.70;10.17;;;3.80;99.90;;;;;;5070035;28;20219;-72
2022/01/12 09:38:54;;;;;;;13.23;9.63;;;3.90;99.90;;;;;;5068994;28;20185;-72
2022/01/12 09:41:21;;;;;;;12.50;9.50;;;3.90;99.90;;;;;;5067172;28;20212;-72
2022/01/12 09:43:51;;;;;;;12.50;9.70;;;4.00;99.90;;;;;;5068448;28;20834;-72
2022/01/12 09:46:18;;;;;;;12.43;9.00;;;3.90;99.90;;;;;;5074922;28;20185;-72
2022/01/12 09:48:45;;;;;;;10.93;8.37;;;4.00;99.90;;;;;;5069218;28;20714;-72
2022/01/12 09:51:11;;;;;;;11.17;8.27;;;4.00;99.90;;;;;;5068036;28;20652;-72
2022/01/12 09:53:38;;;;;;;10.83;7.90;;;4.10;98.90;;;;;;5069968;28;20563;-72
2022/01/12 09:56:13;;;;;;;9.60;7.40;;;4.20;97.10;;;;;;5069493;28;20462;-72
2022/01/12 09:58:40;;;;;;;11.57;8.90;;;4.20;97.40;;;;;;5068378;28;20177;-72
2022/01/12 10:01:05;;;;;;;11.50;8.00;;;4.30;99.00;;;;;;5068645;28;20647;-72
2022/01/12 10:03:31;;;;;;;10.70;7.73;;;4.40;97.10;;;;;;5068615;28;20205;-72
2022/01/12 10:05:57;;;;;;;10.07;7.70;;;4.50;94.40;;;;;;5070329;28;20189;-75
2022/01/12 10:08:23;;;;;;;10.37;7.70;;;4.60;93.90;;;;;;5080909;28;20609;-74
2022/01/12 10:11:07;;;;;;;10.07;7.27;;;4.60;92.90;;;;;;5071482;28;20216;-72
2022/01/12 10:13:37;;;;;;;9.77;7.37;;;4.60;91.40;;;;;;5072374;28;20216;-74
2022/01/12 10:16:32;;;;;;;10.37;7.83;;;4.60;91.60;;;;;;5069186;28;20563;-74
2022/01/12 10:19:00;;;;;;;9.70;7.90;;;4.70;91.20;;;;;;5060113;28;20227;-74
2022/01/12 10:21:34;;;;;;;11.20;8.90;;;4.70;91.30;;;;;;5073394;28;20321;-74
2022/01/12 10:24:10;;;;;;;10.40;7.87;;;4.60;89.90;;;;;;5089781;28;20199;-73
2022/01/12 10:26:37;;;;;;;10.17;7.83;;;4.60;88.90;;;;;;5090474;28;20222;-74
2022/01/12 10:29:48;;;;;;;11.47;7.87;;;4.60;90.70;;;;;;5086703;28;20334;-74
2022/01/12 10:32:17;;;;;;;10.43;7.67;;;4.60;90.30;;;;;;5088433;28;20203;-74
2022/01/12 10:34:48;;;;;;;11.37;8.80;;;4.60;91.10;;;;;;5088917;28;20208;-74
2022/01/12 10:37:19;;;;;;;9.87;7.70;;;4.60;90.60;;;;;;5088915;28;20176;-74
2022/01/12 10:39:51;;;;;;;11.63;8.50;;;4.70;88.50;;;;;;5089843;28;20200;-74
2022/01/12 10:42:19;;;;;;;12.67;8.00;;;4.70;88.20;;;;;;5090357;28;20200;-74
2022/01/12 10:44:48;;;;;;;12.83;8.60;;;4.70;85.60;;;;;;5089956;28;20187;-74
2022/01/12 10:47:19;;;;;;;10.70;8.83;;;4.80;85.50;;;;;;5090926;28;20545;-74
2022/01/12 10:50:06;;;;;;;14.53;9.43;;;4.80;86.70;;;;;;5086628;28;20666;-74
2022/01/12 10:52:49;;;;;;;10.83;8.20;;;4.80;85.60;;;;;;5087217;28;20203;-73
2022/01/12 10:55:17;;;;;;;11.27;8.80;;;4.80;84.90;;;;;;5088982;28;20180;-74
2022/01/12 10:57:47;;;;;;;10.63;8.50;;;4.90;83.70;;;;;;5088073;28;20607;-73
2022/01/12 11:00:19;;;;;;;11.00;8.13;;;4.90;83.30;;;;;;5070658;28;20212;-73
2022/01/12 11:02:54;;;;;;;11.37;8.43;;;5.00;82.10;;;;;;5090006;28;20196;-72
2022/01/12 11:05:22;;;;;;;10.23;8.03;;;4.90;81.80;;;;;;5093995;28;20175;-72
2022/01/12 11:07:49;;;;;;;10.43;7.70;;;4.90;82.30;;;;;;5089769;28;20184;-73
2022/01/12 11:10:15;;;;;;;9.17;7.33;;;5.00;80.30;;;;;;5093021;28;20583;-72
2022/01/12 11:12:42;;;;;;;9.27;7.07;;;4.90;79.20;;;;;;5090309;28;20208;-72
2022/01/12 11:15:10;;;;;;;11.10;8.27;;;5.10;81.20;;;;;;5090633;28;20185;-72
2022/01/12 11:17:38;;;;;;;11.27;8.17;;;5.10;82.50;;;;;;5091772;28;20274;-72
2022/01/12 11:20:22;;;;;;;10.90;8.87;;;5.20;83.20;;;;;;5082564;28;20200;-74
2022/01/12 11:22:54;;;;;;;10.90;8.30;;;5.20;83.40;;;;;;5090073;28;20228;-73
2022/01/12 11:25:29;;;;;;;11.17;8.70;;;5.30;80.90;;;;;;5089796;28;20198;-73
2022/01/12 11:28:16;;;;;;;10.80;9.02;;;5.30;81.50;;;;;;5087698;28;20457;-73
2022/01/12 11:31:02;;;;;;;11.03;8.60;;;5.40;82.20;;;;;;5084506;28;20191;-74
2022/01/12 11:33:31;;;;;;;10.23;8.47;;;5.50;80.50;;;;;;5087257;28;20659;-74
2022/01/12 11:36:03;;;;;;;11.87;9.03;;;5.60;79.80;;;;;;5090155;28;20188;-74
2022/01/12 11:38:34;;;;;;;10.73;8.83;;;5.60;78.70;;;;;;5089269;28;20203;-74
2022/01/12 11:41:23;;;;;;;12.13;9.50;;;5.70;77.50;;;;;;5087645;28;20280;-74
2022/01/12 11:43:51;;;;;;;12.00;9.37;;;5.70;76.60;;;;;;5084176;28;20200;-74
2022/01/12 11:46:20;;;;;;;12.13;9.20;;;5.80;76.90;;;;;;5090218;28;20177;-75
2022/01/12 11:48:47;;;;;;;11.10;9.13;;;5.90;77.00;;;;;;5093212;28;20179;-71
2022/01/12 11:51:16;;;;;;;10.90;8.87;;;6.00;75.30;;;;;;5089038;28;20216;-71
2022/01/12 11:53:55;;;;;;;11.07;8.53;;;6.00;74.10;;;;;;5083438;28;20686;-73
2022/01/12 11:56:24;;;;;;;11.50;9.30;;;6.00;74.20;;;;;;5088375;28;20230;-75
2022/01/12 11:58:50;;;;;;;12.43;9.20;;;6.00;73.20;;;;;;5089469;28;20322;-73
2022/01/12 12:01:16;;;;;;;13.13;9.67;;;6.00;73.80;;;;;;5089406;28;20288;-74
2022/01/12 12:03:42;;;;;;;12.00;9.13;;;6.00;73.10;;;;;;5093123;28;20212;-74
2022/01/12 12:06:20;;;;;;;12.27;8.97;;;6.00;73.70;;;;;;5093790;28;20180;-74
2022/01/12 12:09:11;;;;;;;10.10;8.50;;;6.30;73.60;;;;;;5092175;28;20205;-74
2022/01/12 12:11:37;;;;;;;11.97;8.37;;;6.60;72.90;;;;;;5075678;28;20188;-75
2022/01/12 12:14:08;;;;;;;10.87;8.93;;;6.80;71.40;;;;;;5089914;28;20212;-74
2022/01/12 12:16:35;;;;;;;10.00;8.30;;;7.00;69.00;;;;;;5090205;28;20255;-74
2022/01/12 12:19:04;;;;;;;10.47;8.43;;;7.20;68.70;;;;;;5089192;28;20267;-72
2022/01/12 12:21:31;;;;;;;10.53;8.40;;;7.50;68.00;;;;;;5088267;28;20709;-72
2022/01/12 12:24:08;;;;;;;9.33;8.03;;;7.70;65.70;;;;;;5092183;28;20706;-72
2022/01/12 12:26:44;;;;;;;9.87;8.13;;;7.70;64.30;;;;;;5093319;28;20181;-72
2022/01/12 12:29:17;;;;;;;11.63;9.07;;;7.70;64.70;;;;;;5105090;28;20196;-72
2022/01/12 12:31:47;;;;;;;9.03;7.33;;;7.80;64.90;;;;;;5093891;28;20172;-72
2022/01/12 12:34:14;;;;;;;9.90;7.47;;;7.80;63.90;;;;;;5100839;28;20176;-72
2022/01/12 12:36:40;;;;;;;10.77;7.37;;;7.80;63.50;;;;;;5093211;28;20255;-72
2022/01/12 12:39:12;;;;;;;9.00;7.90;;;7.80;63.30;;;;;;5088479;28;20176;-72
2022/01/12 12:41:39;;;;;;;9.23;8.00;;;7.80;63.20;;;;;;5097381;27;20211;-72
2022/01/12 12:44:06;;;;;;;8.33;7.33;;;8.10;64.30;;;;;;5089744;28;20196;-72
2022/01/12 12:46:31;;;;;;;11.60;8.43;;;8.50;62.50;;;;;;5087610;28;20172;-72
2022/01/12 12:48:57;;;;;;;9.93;8.10;;;8.80;61.80;;;;;;5078448;28;20481;-72
2022/01/12 12:51:23;;;;;;;9.60;7.70;;;8.90;61.10;;;;;;5088760;28;20176;-72
2022/01/12 12:53:54;;;;;;;8.70;7.60;;;9.20;60.60;;;;;;5085867;28;20290;-72
2022/01/12 12:56:26;;;;;;;9.97;7.90;;;9.30;59.70;;;;;;5090734;28;20191;-72
2022/01/12 12:58:54;;;;;;;9.60;7.83;;;9.40;59.80;;;;;;5090167;28;20196;-71
2022/01/12 13:01:22;;;;;;;8.43;7.33;;;9.30;58.90;;;;;;5089475;28;20667;-74
2022/01/12 13:03:51;;;;;;;9.90;8.47;;;9.30;58.40;;;;;;5090666;28;20218;-71
2022/01/12 13:06:28;;;;;;;10.33;8.80;;;9.40;58.80;;;;;;5092725;28;20177;-71
2022/01/12 13:08:55;;;;;;;9.07;7.87;;;9.50;58.50;;;;;;5087128;28;20187;-70
2022/01/12 13:11:28;;;;;;;9.33;7.60;;;9.50;58.40;;;;;;5086213;28;20231;-74
2022/01/12 13:13:59;;;;;;;11.10;8.83;;;9.60;57.90;;;;;;5098266;28;20245;-74
2022/01/12 13:16:27;;;;;;;10.20;8.80;;;9.40;57.80;;;;;;5091595;28;20253;-75
2022/01/12 13:19:03;;;;;;;10.03;7.97;;;9.30;57.80;;;;;;5092848;28;20183;-75
2022/01/12 13:21:30;;;;;;;9.20;8.20;;;9.20;57.80;;;;;;5090776;28;20215;-75
2022/01/12 13:23:58;;;;;;;10.10;7.77;;;9.30;58.60;;;;;;5089320;28;20200;-76
2022/01/12 13:26:26;;;;;;;8.67;7.77;;;9.40;58.00;;;;;;5091856;28;20192;-76
2022/01/12 13:28:52;;;;;;;8.90;7.93;;;9.50;58.00;;;;;;5086690;28;20175;-75
2022/01/12 13:31:19;;;;;;;9.03;8.07;;;9.50;57.50;;;;;;5090570;28;20173;-77
2022/01/12 13:33:48;;;;;;;11.17;8.97;;;9.40;57.80;;;;;;5090823;28;20703;-75
2022/01/12 13:36:21;;;;;;;10.93;9.07;;;9.50;57.80;;;;;;5073607;28;20221;-78
2022/01/12 13:38:48;;;;;;;10.67;9.20;;;9.10;57.70;;;;;;5075203;28;20204;-77
2022/01/12 13:41:23;;;;;;;11.47;9.77;;;9.10;57.90;;;;;;5091185;28;20196;-76
2022/01/12 13:43:58;;;;;;;11.70;9.40;;;8.80;58.00;;;;;;5079057;28;20197;-77
2022/01/12 13:46:39;;;;;;;11.83;9.87;;;8.60;58.60;;;;;;5091645;28;20176;-77
2022/01/12 13:49:21;;;;;;;10.43;8.13;;;8.40;58.90;;;;;;5108097;27;20180;-77
2022/01/12 13:52:00;;;;;;;9.80;8.47;;;8.40;59.10;;;;;;5089854;28;20176;-77
2022/01/12 13:54:35;;;;;;;10.10;8.67;;;8.30;59.30;;;;;;5086913;28;20204;-76
2022/01/12 13:57:02;;;;;;;10.93;9.37;;;8.00;59.50;;;;;;5089053;28;20651;-76
2022/01/12 13:59:30;;;;;;;11.80;9.47;;;8.00;59.90;;;;;;5090363;28;20677;-76
2022/01/12 14:01:58;;;;;;;15.20;10.93;;;7.80;59.80;;;;;;5068654;28;20218;-76
2022/01/12 14:04:31;;;;;;;12.73;10.47;;;7.70;60.20;;;;;;5060406;28;20955;-76
2022/01/12 14:07:01;;;;;;;13.03;9.80;;;7.50;60.80;;;;;;5084522;28;20176;-76
2022/01/12 14:09:42;;;;;;;15.20;11.47;;;7.50;61.60;;;;;;5102675;28;20169;-76
2022/01/12 14:12:13;;;;;;;13.17;10.93;;;7.50;61.20;;;;;;5087348;28;20216;-76
2022/01/12 14:14:53;;;;;;;12.87;9.77;;;7.20;61.70;;;;;;5067068;28;20180;-76
2022/01/12 14:17:42;;;;;;;13.67;10.60;;;7.00;62.90;;;;;;5072214;28;20187;-76
2022/01/12 14:20:21;;;;;;;12.77;10.10;;;6.90;63.30;;;;;;5086222;28;20204;-76
2022/01/12 14:22:50;;;;;;;12.57;10.10;;;6.90;63.60;;;;;;5098358;28;20192;-76
2022/01/12 14:25:18;;;;;;;13.00;10.30;;;6.80;63.90;;;;;;5090375;28;20188;-76
2022/01/12 14:27:53;;;;;;;14.43;10.53;;;6.80;64.00;;;;;;5087427;28;20199;-76
2022/01/12 14:30:21;;;;;;;12.00;9.93;;;6.70;64.20;;;;;;5088483;28;20688;-76
2022/01/12 14:32:48;;;;;;;13.90;10.50;;;6.60;64.50;;;;;;5083772;28;20201;-75